Natures Way Challenger — WDF7294 — position and weather

sailwx.info

Track history (hours):
 
Tides and Currents Weather Stations Pressure Air Temp Water Temp Dewpoint Dewpoint Depression Visibility Wind Speed Wind Dir Waves Ship Positions

Natures Way Challenger

Owner: Natures Way Marine, LLC, Theodore, AL. More information available from US FCC via Universal Licensing System and Coast Guard Vessel Documentation Center.

Last reported at 2014-Oct-24 12:33 UTC. Time now 2014-Oct-26 00:27 UTC.
Position N 30°05' W 090°55'.

Length 14 m.

Type: Towing. MMSI: 367483050.

Date/timePositionNaut miles runAvg speedWind from/ knotsBaromVisibWave heightAir tempDewpointWater temp
2014-Oct-24 12:33N 30°05' W 090°55'4 4.0
2014-Oct-24 11:29N 30°03' W 090°50'4 4.4
2014-Oct-24 10:33N 29°59' W 090°49'35 1.7
2014-Oct-23 14:30N 29°57' W 090°09'4 3.6
2014-Oct-23 13:23N 29°55' W 090°05'3 3.9
2014-Oct-23 12:34N 29°57' W 090°03'3 0.9
2014-Oct-23 09:32N 29°56' W 089°60'2 2.4
2014-Oct-23 08:32N 29°58' W 090°02'0 0.4
2014-Oct-23 07:25N 29°59' W 090°01'1 0.7
2014-Oct-23 06:33N 29°59' W 090°01'1 0.5
2014-Oct-23 05:26N 29°60' W 090°01'0 0.0
2014-Oct-22 17:05N 29°60' W 090°01'  
2014-Oct-16 08:24N 29°57' W 090°24'41 0.9
2014-Oct-14 13:33N 29°38' W 091°05'3 2.9
2014-Oct-14 12:33N 29°39' W 091°07'  
Track history (hours):
 
Tides and Currents Weather Stations Pressure Air Temp Water Temp Dewpoint Dewpoint Depression Visibility Wind Speed Wind Dir Waves Ship Positions

Natures Way Challenger

Owner: Natures Way Marine, LLC, Theodore, AL. More information available from US FCC via Universal Licensing System and Coast Guard Vessel Documentation Center.

Last reported at 2014-Oct-24 12:33 UTC. Time now 2014-Oct-26 00:27 UTC.
Position N 30°05' W 090°55'.

Length 14 m.

Type: Towing. MMSI: 367483050.

Date/timePositionNaut miles runAvg speedWind from/ knotsBaromVisibWave heightAir tempDewpointWater temp
2014-Oct-24 12:33N 30°05' W 090°55'4 4.0
2014-Oct-24 11:29N 30°03' W 090°50'4 4.4
2014-Oct-24 10:33N 29°59' W 090°49'35 1.7
2014-Oct-23 14:30N 29°57' W 090°09'4 3.6
2014-Oct-23 13:23N 29°55' W 090°05'3 3.9
2014-Oct-23 12:34N 29°57' W 090°03'3 0.9
2014-Oct-23 09:32N 29°56' W 089°60'2 2.4
2014-Oct-23 08:32N 29°58' W 090°02'0 0.4
2014-Oct-23 07:25N 29°59' W 090°01'1 0.7
2014-Oct-23 06:33N 29°59' W 090°01'1 0.5
2014-Oct-23 05:26N 29°60' W 090°01'0 0.0
2014-Oct-22 17:05N 29°60' W 090°01'  
2014-Oct-16 08:24N 29°57' W 090°24'41 0.9
2014-Oct-14 13:33N 29°38' W 091°05'3 2.9
2014-Oct-14 12:33N 29°39' W 091°07'  

Dump ship's entire track history